Time;durP1;ratioP1;P1;durP2;ratioP2;P2;SDS_P1;SDS_P2;PMS_P1;PMS_P2;Temp;Humidity;BMP_temperature;BMP_pressure;BME280_temperature;BME280_humidity;BME280_pressure;Samples;Min_cycle;Max_cycle;Signal;HPM_P1;HPM_P2
2022/07/12 00:01:31;;;;;;;4.05;2.60;;;16.00;99.90;;;;;;5053419;28;20105;-75
2022/07/12 00:03:57;;;;;;;3.30;2.65;;;16.00;99.90;;;;;;5070039;28;20044;-75
2022/07/12 00:06:23;;;;;;;3.80;3.40;;;16.00;99.90;;;;;;5067426;28;20781;-75
2022/07/12 00:08:49;;;;;;;4.10;3.38;;;16.10;99.90;;;;;;5050231;28;20524;-75
2022/07/12 00:11:14;;;;;;;4.25;3.05;;;16.10;99.90;;;;;;5064173;28;20846;-76
2022/07/12 00:13:40;;;;;;;3.53;3.22;;;16.10;99.90;;;;;;5049096;28;20085;-77
2022/07/12 00:16:06;;;;;;;5.03;3.15;;;16.10;99.90;;;;;;5067901;28;20392;-77
2022/07/12 00:18:32;;;;;;;3.50;2.92;;;16.10;99.90;;;;;;5051211;28;20043;-76
2022/07/12 00:20:57;;;;;;;8.23;3.60;;;16.10;99.90;;;;;;5069065;28;20040;-77
2022/07/12 00:23:23;;;;;;;4.55;3.63;;;16.10;99.90;;;;;;5056101;28;20037;-76
2022/07/12 00:25:49;;;;;;;3.47;3.17;;;16.10;99.90;;;;;;5051227;28;20372;-76
2022/07/12 00:28:15;;;;;;;4.22;3.30;;;16.10;99.90;;;;;;5048815;28;20033;-76
2022/07/12 00:30:41;;;;;;;3.50;3.20;;;16.10;99.90;;;;;;5081449;28;20415;-76
2022/07/12 00:33:06;;;;;;;3.67;2.85;;;16.10;99.90;;;;;;5046528;28;20127;-76
2022/07/12 00:35:32;;;;;;;4.07;3.10;;;16.00;99.90;;;;;;5043462;28;20602;-76
2022/07/12 00:37:58;;;;;;;3.50;3.08;;;16.10;99.90;;;;;;5065665;28;20067;-75
2022/07/12 00:40:23;;;;;;;3.67;2.92;;;16.10;99.90;;;;;;5064692;28;20059;-76
2022/07/12 00:42:49;;;;;;;3.47;3.15;;;16.10;99.90;;;;;;5043971;28;20048;-76
2022/07/12 00:45:15;;;;;;;4.05;3.20;;;16.00;99.90;;;;;;5062673;28;20055;-75
2022/07/12 00:47:44;;;;;;;3.78;3.40;;;16.10;99.90;;;;;;5068235;28;20044;-75
2022/07/12 00:50:13;;;;;;;6.95;3.40;;;16.10;99.90;;;;;;5081232;28;20119;-75
2022/07/12 00:52:39;;;;;;;4.22;2.97;;;16.10;99.90;;;;;;5026581;28;20047;-75
2022/07/12 00:55:06;;;;;;;3.45;2.85;;;16.00;99.90;;;;;;5048596;28;20041;-75
2022/07/12 00:57:33;;;;;;;5.00;2.80;;;16.00;99.90;;;;;;5062087;28;20052;-75
2022/07/12 00:59:59;;;;;;;4.30;2.70;;;16.00;99.90;;;;;;5047547;28;20174;-76
2022/07/12 01:02:25;;;;;;;3.00;2.70;;;16.00;99.90;;;;;;5029883;28;20060;-76
2022/07/12 01:04:53;;;;;;;3.35;2.95;;;16.00;99.90;;;;;;5044527;28;20486;-76
2022/07/12 01:07:18;;;;;;;6.18;3.60;;;15.90;99.90;;;;;;5027172;28;20052;-76
2022/07/12 01:09:45;;;;;;;4.03;3.63;;;15.90;99.90;;;;;;5051900;28;20032;-76
2022/07/12 01:12:10;;;;;;;3.80;3.20;;;15.90;99.90;;;;;;5063716;28;20045;-76
2022/07/12 01:14:39;;;;;;;4.22;3.20;;;15.90;99.90;;;;;;5045016;28;20032;-76
2022/07/12 01:17:06;;;;;;;4.25;3.15;;;15.90;99.90;;;;;;5043243;28;20367;-77
2022/07/12 01:19:34;;;;;;;3.78;3.40;;;15.90;99.90;;;;;;5071825;28;20048;-76
2022/07/12 01:22:02;;;;;;;4.13;3.28;;;15.90;99.90;;;;;;5046097;28;20048;-76
2022/07/12 01:24:28;;;;;;;4.43;3.28;;;15.80;99.90;;;;;;5052205;28;20064;-75
2022/07/12 01:26:53;;;;;;;3.35;3.05;;;15.80;99.90;;;;;;5084378;28;20037;-74
2022/07/12 01:29:20;;;;;;;3.92;3.42;;;15.90;99.90;;;;;;5035934;28;20097;-75
2022/07/12 01:31:46;;;;;;;4.28;3.33;;;15.90;99.90;;;;;;5075979;28;20518;-75
2022/07/12 01:34:13;;;;;;;3.85;3.33;;;15.80;99.90;;;;;;5058946;28;20063;-76
2022/07/12 01:36:40;;;;;;;4.78;3.55;;;15.90;99.90;;;;;;5029643;28;20051;-77
2022/07/12 01:39:05;;;;;;;4.35;3.70;;;15.80;99.90;;;;;;5075720;28;20048;-75
2022/07/12 01:41:32;;;;;;;4.40;3.72;;;15.80;99.90;;;;;;5026323;28;20049;-75
2022/07/12 01:43:58;;;;;;;4.80;3.65;;;15.80;99.90;;;;;;5059708;28;20055;-75
2022/07/12 01:46:24;;;;;;;5.28;3.90;;;15.80;99.90;;;;;;5034728;28;20036;-75
2022/07/12 01:48:50;;;;;;;4.80;3.60;;;15.80;99.90;;;;;;5076512;28;20049;-76
2022/07/12 01:51:15;;;;;;;4.70;4.20;;;15.80;99.90;;;;;;5030558;28;20460;-76
2022/07/12 01:53:41;;;;;;;4.30;3.83;;;15.80;99.90;;;;;;5048759;28;20033;-76
2022/07/12 01:56:07;;;;;;;5.25;3.70;;;15.70;99.90;;;;;;5045288;28;20432;-76
2022/07/12 01:58:32;;;;;;;4.55;3.53;;;15.80;99.90;;;;;;5056726;28;20048;-75
2022/07/12 02:00:58;;;;;;;4.10;3.70;;;15.80;99.90;;;;;;5027329;28;20051;-75
2022/07/12 02:03:24;;;;;;;5.07;3.63;;;15.80;99.90;;;;;;5046324;28;20142;-76
2022/07/12 02:05:50;;;;;;;4.07;3.65;;;15.70;99.90;;;;;;5072135;28;20045;-75
2022/07/12 02:08:16;;;;;;;4.65;4.25;;;15.80;99.90;;;;;;5017195;28;20047;-76
2022/07/12 02:10:45;;;;;;;3.95;3.60;;;15.70;99.90;;;;;;5044985;28;20048;-76
2022/07/12 02:13:10;;;;;;;5.80;4.10;;;15.70;99.90;;;;;;5038982;28;20032;-75
2022/07/12 02:15:36;;;;;;;5.90;4.70;;;15.70;99.90;;;;;;5061012;28;20040;-76
2022/07/12 02:18:02;;;;;;;9.88;4.47;;;15.70;99.90;;;;;;5073617;28;20039;-75
2022/07/12 02:20:28;;;;;;;6.25;4.43;;;15.70;99.90;;;;;;5069406;28;20066;-75
2022/07/12 02:22:53;;;;;;;9.48;4.55;;;15.60;99.90;;;;;;5076297;28;20040;-77
2022/07/12 02:25:19;;;;;;;6.50;4.85;;;15.60;99.90;;;;;;5075739;28;20044;-75
2022/07/12 02:27:45;;;;;;;6.03;4.50;;;15.50;99.90;;;;;;5079406;28;20145;-76
2022/07/12 02:30:11;;;;;;;5.47;4.90;;;15.60;99.90;;;;;;5030836;28;20040;-76
2022/07/12 02:32:37;;;;;;;6.25;4.82;;;15.60;99.90;;;;;;5071825;28;20054;-76
2022/07/12 02:35:06;;;;;;;5.30;4.65;;;15.60;99.90;;;;;;5041450;28;20045;-76
2022/07/12 02:37:32;;;;;;;5.55;4.55;;;15.50;99.90;;;;;;5061062;28;20063;-76
2022/07/12 02:42:43;;;;;;;6.10;5.03;;;15.50;99.90;;;;;;5076478;28;20040;-76
2022/07/12 02:45:10;;;;;;;6.28;5.22;;;15.40;99.90;;;;;;5050628;28;20384;-75
2022/07/12 02:47:40;;;;;;;6.53;5.10;;;15.40;99.90;;;;;;5038188;28;20052;-76
2022/07/12 02:50:06;;;;;;;8.93;5.45;;;15.50;99.90;;;;;;5027330;28;20503;-76
2022/07/12 02:52:33;;;;;;;6.55;5.13;;;15.40;99.90;;;;;;5084917;28;20086;-75
2022/07/12 02:54:58;;;;;;;7.07;4.78;;;15.50;99.90;;;;;;5043733;28;20118;-75
2022/07/12 02:57:24;;;;;;;5.53;5.03;;;15.50;99.90;;;;;;5053671;28;20123;-74
2022/07/12 02:59:50;;;;;;;6.72;5.45;;;15.40;99.90;;;;;;5052284;28;20044;-76
2022/07/12 03:02:16;;;;;;;6.75;5.32;;;15.50;99.90;;;;;;5046032;28;20041;-75
2022/07/12 03:04:42;;;;;;;6.22;5.50;;;15.40;99.90;;;;;;5048556;28;20391;-76
2022/07/12 03:07:07;;;;;;;10.50;6.57;;;15.40;99.90;;;;;;5049830;28;20044;-76
2022/07/12 03:09:33;;;;;;;9.23;5.88;;;15.40;99.90;;;;;;5034007;28;20116;-76
2022/07/12 03:11:59;;;;;;;8.80;6.38;;;15.50;99.90;;;;;;5046714;28;20039;-76
2022/07/12 03:14:24;;;;;;;8.45;7.30;;;15.40;99.90;;;;;;5047964;28;20515;-74
2022/07/12 03:16:50;;;;;;;11.50;6.70;;;15.40;99.90;;;;;;5046891;28;20087;-76
2022/07/12 03:19:16;;;;;;;7.88;6.90;;;15.40;99.90;;;;;;5062190;28;20475;-76
2022/07/12 03:21:42;;;;;;;9.32;7.10;;;15.40;99.90;;;;;;5032011;28;20040;-76
2022/07/12 03:24:07;;;;;;;10.27;8.30;;;15.40;99.90;;;;;;5087044;28;20029;-76
2022/07/12 03:26:52;;;;;;;10.40;8.60;;;15.40;99.90;;;;;;5047338;28;20040;-77
2022/07/12 03:29:19;;;;;;;10.38;8.48;;;15.30;99.90;;;;;;5082499;28;20094;-76
2022/07/12 03:31:44;;;;;;;10.35;8.75;;;15.30;99.90;;;;;;5031644;28;20492;-76
2022/07/12 03:34:10;;;;;;;12.25;9.52;;;15.30;99.90;;;;;;5084663;28;20131;-76
2022/07/12 03:36:35;;;;;;;13.98;10.23;;;15.30;99.90;;;;;;5077846;28;20087;-75
2022/07/12 03:39:02;;;;;;;12.93;10.00;;;15.30;99.90;;;;;;5081647;28;20399;-76
2022/07/12 03:41:27;;;;;;;12.90;9.65;;;15.30;99.90;;;;;;5074773;28;20040;-75
2022/07/12 03:43:53;;;;;;;17.85;10.00;;;15.30;99.90;;;;;;5051445;28;20043;-76
2022/07/12 03:46:19;;;;;;;12.38;9.82;;;15.20;99.90;;;;;;5030164;28;20048;-77
2022/07/12 03:48:44;;;;;;;11.70;8.68;;;15.30;99.90;;;;;;5036454;28;20048;-76
2022/07/12 03:51:11;;;;;;;8.85;7.95;;;15.30;99.90;;;;;;5038380;28;20048;-77
2022/07/12 03:53:37;;;;;;;16.42;8.50;;;15.40;99.90;;;;;;5047532;28;20043;-76
2022/07/12 03:56:03;;;;;;;22.38;8.85;;;15.30;99.90;;;;;;5037019;28;20124;-74
2022/07/12 03:58:28;;;;;;;13.20;8.05;;;15.30;99.90;;;;;;5070269;28;20546;-76
2022/07/12 04:00:54;;;;;;;9.60;7.07;;;15.20;99.90;;;;;;5037242;28;20152;-76
2022/07/12 04:03:19;;;;;;;10.43;7.00;;;15.30;99.90;;;;;;5067642;28;20406;-77
2022/07/12 04:05:45;;;;;;;8.40;6.57;;;15.20;99.90;;;;;;5048190;28;20052;-77
2022/07/12 04:08:11;;;;;;;10.18;6.53;;;15.30;99.90;;;;;;5029496;28;20039;-76
2022/07/12 04:10:36;;;;;;;6.80;6.10;;;15.20;99.90;;;;;;5051840;28;20044;-76
2022/07/12 04:13:03;;;;;;;25.50;7.07;;;15.30;99.90;;;;;;5062359;28;20171;-76
2022/07/12 04:15:29;;;;;;;9.98;7.22;;;15.20;99.90;;;;;;5049493;28;20032;-76
2022/07/12 04:17:55;;;;;;;8.43;6.57;;;15.30;99.90;;;;;;5029443;28;20037;-75
2022/07/12 04:20:20;;;;;;;11.52;7.25;;;15.30;99.90;;;;;;5053044;28;20050;-76
2022/07/12 04:22:46;;;;;;;7.78;6.97;;;15.40;99.90;;;;;;5053743;28;20067;-77
2022/07/12 04:25:12;;;;;;;39.45;6.93;;;15.40;99.90;;;;;;5086602;28;20398;-75
2022/07/12 04:27:38;;;;;;;13.32;6.50;;;15.40;99.90;;;;;;5032951;28;20211;-76
2022/07/12 04:30:04;;;;;;;7.85;6.43;;;15.40;99.90;;;;;;5077641;28;20048;-75
2022/07/12 04:32:30;;;;;;;59.45;7.35;;;15.50;99.90;;;;;;5030533;28;20037;-74
2022/07/12 04:34:56;;;;;;;6.82;5.90;;;15.40;99.90;;;;;;5064830;28;20422;-76
2022/07/12 04:37:21;;;;;;;17.58;5.95;;;15.50;99.90;;;;;;5078839;28;20033;-76
2022/07/12 04:39:47;;;;;;;36.75;5.95;;;15.40;99.90;;;;;;5023849;28;20452;-76
2022/07/12 04:42:13;;;;;;;11.02;5.20;;;15.40;99.90;;;;;;5061997;28;20124;-76
2022/07/12 04:44:38;;;;;;;15.93;5.65;;;15.30;99.90;;;;;;5060294;28;20037;-77
2022/07/12 04:47:04;;;;;;;6.00;5.40;;;15.40;99.90;;;;;;5082239;28;20074;-76
2022/07/12 04:49:33;;;;;;;14.27;5.97;;;15.30;99.90;;;;;;5031718;28;20074;-76
2022/07/12 04:51:59;;;;;;;6.78;6.07;;;15.40;99.90;;;;;;5046313;28;20087;-76
2022/07/12 04:54:24;;;;;;;7.90;6.63;;;15.50;99.90;;;;;;5050238;28;20114;-76
2022/07/12 04:56:50;;;;;;;28.27;7.47;;;15.50;99.90;;;;;;5062205;28;20036;-76
2022/07/12 04:59:16;;;;;;;6.55;5.50;;;15.60;99.90;;;;;;5049205;28;20476;-76
2022/07/12 05:01:41;;;;;;;6.03;5.10;;;15.50;99.90;;;;;;5046402;28;20392;-75
2022/07/12 05:04:07;;;;;;;16.50;5.97;;;15.40;99.90;;;;;;5041893;28;20391;-76
2022/07/12 05:06:33;;;;;;;6.78;5.70;;;15.30;99.90;;;;;;5043635;28;20032;-77
2022/07/12 05:08:58;;;;;;;10.68;6.65;;;15.30;99.90;;;;;;5043514;28;20458;-76
2022/07/12 05:11:24;;;;;;;6.90;5.63;;;15.40;99.90;;;;;;5060866;28;20047;-75
2022/07/12 05:13:50;;;;;;;6.93;6.00;;;15.30;99.90;;;;;;5030136;28;20056;-75
2022/07/12 05:16:15;;;;;;;6.60;4.93;;;15.60;99.90;;;;;;5045381;28;20163;-75
2022/07/12 05:18:41;;;;;;;7.45;4.82;;;15.60;99.90;;;;;;5074799;28;20080;-75
2022/07/12 05:21:06;;;;;;;11.18;3.50;;;15.70;99.90;;;;;;5046700;28;20029;-72
2022/07/12 05:23:32;;;;;;;3.28;2.13;;;16.10;99.90;;;;;;5077980;28;20116;-73
2022/07/12 05:25:58;;;;;;;2.60;2.40;;;16.50;99.90;;;;;;5074985;28;20491;-73
2022/07/12 05:28:23;;;;;;;6.57;5.28;;;16.80;99.90;;;;;;5024001;28;20048;-77
2022/07/12 05:30:49;;;;;;;4.15;3.75;;;16.90;99.90;;;;;;5064297;28;20548;-74
2022/07/12 05:33:15;;;;;;;4.47;4.07;;;17.00;99.90;;;;;;5079054;28;20064;-73
2022/07/12 05:35:40;;;;;;;5.05;4.10;;;17.00;99.90;;;;;;5048647;28;20090;-74
2022/07/12 05:38:06;;;;;;;4.07;3.65;;;17.20;99.90;;;;;;5077915;28;20133;-73
2022/07/12 05:40:32;;;;;;;7.85;4.05;;;17.20;99.90;;;;;;5062496;28;20049;-75
2022/07/12 05:42:58;;;;;;;4.95;4.00;;;17.30;99.90;;;;;;5046836;28;20109;-74
2022/07/12 05:45:24;;;;;;;4.78;3.60;;;17.50;99.90;;;;;;5047596;28;20395;-75
2022/07/12 05:47:50;;;;;;;5.70;3.88;;;17.60;99.90;;;;;;5060242;28;20055;-74
2022/07/12 05:50:15;;;;;;;3.80;3.25;;;17.50;99.90;;;;;;5045146;28;20064;-73
2022/07/12 05:55:25;;;;;;;3.60;3.30;;;17.60;99.90;;;;;;5059747;28;20094;-73
2022/07/12 05:57:51;;;;;;;2.97;2.78;;;17.70;99.90;;;;;;5074960;28;20028;-74
2022/07/12 06:00:16;;;;;;;3.50;3.20;;;17.80;99.90;;;;;;5076759;28;20387;-72
2022/07/12 06:02:42;;;;;;;5.13;3.40;;;17.80;99.90;;;;;;5044344;28;20052;-74
2022/07/12 06:05:08;;;;;;;3.75;3.20;;;17.80;99.90;;;;;;5041316;28;20079;-73
2022/07/12 06:07:34;;;;;;;6.30;3.33;;;17.80;99.90;;;;;;5045494;28;20040;-73
2022/07/12 06:09:59;;;;;;;7.07;3.55;;;17.90;99.90;;;;;;5074828;28;20072;-73
2022/07/12 06:12:25;;;;;;;4.78;3.50;;;17.90;99.90;;;;;;5073366;28;20140;-73
2022/07/12 06:14:50;;;;;;;3.60;3.28;;;18.10;99.90;;;;;;5080509;28;20048;-76
2022/07/12 06:17:21;;;;;;;3.55;3.10;;;18.00;99.90;;;;;;5033756;28;20078;-75
2022/07/12 06:19:47;;;;;;;4.60;3.97;;;18.10;99.90;;;;;;5061592;28;20044;-77
2022/07/12 06:22:13;;;;;;;4.10;3.70;;;18.00;99.90;;;;;;5035806;28;20036;-75
2022/07/12 06:24:38;;;;;;;3.33;3.00;;;17.90;99.90;;;;;;5051964;28;20047;-75
2022/07/12 06:27:05;;;;;;;5.10;2.42;;;18.00;99.90;;;;;;5031416;28;20057;-75
2022/07/12 06:29:31;;;;;;;3.00;2.28;;;18.10;99.90;;;;;;5049596;28;20064;-75
2022/07/12 06:31:57;;;;;;;2.30;2.10;;;18.10;99.90;;;;;;5029565;28;20402;-75
2022/07/12 06:34:23;;;;;;;3.35;2.13;;;18.30;99.90;;;;;;5030827;28;20048;-75
2022/07/12 06:36:48;;;;;;;5.55;2.40;;;18.50;99.90;;;;;;5046525;28;20028;-75
2022/07/12 06:39:14;;;;;;;3.55;3.25;;;18.50;99.90;;;;;;5078126;28;20037;-74
2022/07/12 06:41:39;;;;;;;3.42;3.13;;;18.60;99.90;;;;;;5075314;28;20396;-74
2022/07/12 06:44:05;;;;;;;2.92;2.42;;;18.60;99.90;;;;;;5045903;28;20048;-74
2022/07/12 06:46:31;;;;;;;2.20;1.92;;;18.70;99.90;;;;;;5045652;28;20406;-75
2022/07/12 06:48:56;;;;;;;4.13;3.45;;;18.90;99.90;;;;;;5075174;28;20102;-74
2022/07/12 06:51:22;;;;;;;2.08;1.90;;;18.80;99.90;;;;;;5044929;28;20032;-74
2022/07/12 06:53:48;;;;;;;2.13;1.95;;;19.00;99.90;;;;;;5046043;28;20040;-76
2022/07/12 06:56:15;;;;;;;2.78;2.30;;;19.00;99.90;;;;;;5046671;28;20184;-75
2022/07/12 06:58:40;;;;;;;3.85;3.30;;;19.00;99.90;;;;;;5058593;28;20106;-75
2022/07/12 07:01:06;;;;;;;3.35;2.05;;;19.20;99.90;;;;;;5075048;28;20052;-75
2022/07/12 07:03:32;;;;;;;3.88;3.33;;;19.20;99.90;;;;;;5063729;28;20111;-74
2022/07/12 07:05:57;;;;;;;4.40;2.50;;;19.30;99.90;;;;;;5029638;28;20179;-74
2022/07/12 07:08:23;;;;;;;4.45;2.60;;;19.50;99.90;;;;;;5077108;28;20040;-74
2022/07/12 07:10:49;;;;;;;3.20;2.30;;;19.40;99.90;;;;;;5045316;28;20053;-74
2022/07/12 07:13:14;;;;;;;2.95;2.72;;;19.60;99.90;;;;;;5048402;28;20037;-74
2022/07/12 07:15:40;;;;;;;2.85;2.58;;;19.70;99.90;;;;;;5067316;28;20044;-73
2022/07/12 07:18:07;;;;;;;3.03;2.55;;;19.70;99.90;;;;;;5044468;28;20064;-74
2022/07/12 07:20:33;;;;;;;3.72;3.20;;;19.90;99.90;;;;;;5051462;28;20128;-75
2022/07/12 07:22:58;;;;;;;2.10;1.90;;;19.90;99.90;;;;;;5060552;28;20053;-76
2022/07/12 07:25:24;;;;;;;3.85;2.40;;;20.00;99.90;;;;;;5043934;28;20048;-75
2022/07/12 07:27:49;;;;;;;3.05;2.25;;;20.10;99.90;;;;;;5041649;28;20430;-76
2022/07/12 07:32:59;;;;;;;2.70;2.27;;;20.20;99.90;;;;;;5084615;28;20387;-76
2022/07/12 07:35:25;;;;;;;3.97;1.75;;;20.30;99.90;;;;;;5049907;28;20295;-76
2022/07/12 07:37:51;;;;;;;2.15;1.95;;;20.40;99.90;;;;;;5035864;28;20578;-77
2022/07/12 07:40:16;;;;;;;3.97;2.42;;;20.60;99.90;;;;;;5052565;28;20392;-78
2022/07/12 07:42:42;;;;;;;2.40;2.20;;;20.70;99.90;;;;;;5064896;28;20226;-76
2022/07/12 07:45:10;;;;;;;2.30;2.10;;;20.80;99.90;;;;;;5049058;28;22155;-75
2022/07/12 07:47:48;;;;;;;2.28;2.08;;;20.80;99.90;;;;;;5055649;28;20470;-76
2022/07/12 07:50:13;;;;;;;3.10;2.30;;;21.00;99.90;;;;;;5061749;28;20045;-75
2022/07/12 07:52:39;;;;;;;2.72;2.08;;;21.20;99.90;;;;;;5046196;28;20094;-75
2022/07/12 07:55:05;;;;;;;2.50;2.13;;;21.20;99.90;;;;;;5056272;28;20075;-76
2022/07/12 07:57:32;;;;;;;4.05;2.40;;;21.30;99.90;;;;;;5082063;28;20044;-78
2022/07/12 07:59:57;;;;;;;2.15;1.95;;;21.40;99.90;;;;;;5072528;28;20377;-77
2022/07/12 08:02:23;;;;;;;2.72;2.08;;;21.60;99.90;;;;;;5054963;28;20047;-78
2022/07/12 08:04:49;;;;;;;2.35;2.03;;;21.70;99.90;;;;;;5054179;28;20051;-77
2022/07/12 08:07:14;;;;;;;6.28;1.80;;;21.90;99.90;;;;;;5055408;28;20161;-75
2022/07/12 08:09:40;;;;;;;3.72;1.92;;;22.00;99.90;;;;;;5054880;28;20048;-77
2022/07/12 08:12:06;;;;;;;2.10;1.85;;;22.20;99.90;;;;;;5053747;28;20076;-77
2022/07/12 08:14:32;;;;;;;2.55;1.95;;;22.20;99.90;;;;;;5035012;28;20052;-74
2022/07/12 08:16:57;;;;;;;4.15;2.00;;;22.40;99.90;;;;;;5087788;28;20039;-76
2022/07/12 08:19:23;;;;;;;3.05;2.10;;;22.30;99.90;;;;;;5050886;28;20039;-75
2022/07/12 08:21:49;;;;;;;4.60;2.15;;;22.30;99.90;;;;;;5038441;28;20044;-75
2022/07/12 08:24:14;;;;;;;2.20;2.00;;;22.30;99.90;;;;;;5054820;28;20040;-74
2022/07/12 08:26:40;;;;;;;1.80;1.70;;;22.20;99.90;;;;;;5032868;28;20398;-74
2022/07/12 08:29:06;;;;;;;2.97;2.00;;;22.30;99.90;;;;;;5056857;28;20093;-75
2022/07/12 08:31:31;;;;;;;1.60;1.50;;;22.20;99.90;;;;;;5054757;28;20057;-76
2022/07/12 08:33:57;;;;;;;2.50;1.55;;;22.30;99.90;;;;;;5051107;28;20479;-78
2022/07/12 08:36:23;;;;;;;5.20;2.10;;;22.40;99.90;;;;;;5054141;28;20036;-75
2022/07/12 08:38:48;;;;;;;4.07;1.85;;;22.50;99.90;;;;;;5055619;28;20059;-75
2022/07/12 08:41:14;;;;;;;6.55;1.90;;;22.40;99.90;;;;;;5039111;28;20056;-76
2022/07/12 08:43:41;;;;;;;3.63;2.08;;;22.30;99.90;;;;;;5088388;28;20041;-75
2022/07/12 08:46:11;;;;;;;3.47;1.60;;;22.40;99.90;;;;;;5040976;28;20053;-76
2022/07/12 08:48:38;;;;;;;3.33;1.75;;;22.40;99.90;;;;;;5053801;28;20041;-75
2022/07/12 08:51:12;;;;;;;2.50;1.88;;;22.50;99.90;;;;;;5087013;28;20032;-78
2022/07/12 08:53:39;;;;;;;2.55;1.95;;;22.50;99.90;;;;;;5054048;28;20091;-77
2022/07/12 08:56:06;;;;;;;4.65;2.03;;;22.60;99.90;;;;;;5040745;28;20071;-76
2022/07/12 08:58:32;;;;;;;4.95;1.92;;;22.70;99.90;;;;;;5043902;28;20502;-76
2022/07/12 09:00:58;;;;;;;2.67;1.80;;;22.70;99.90;;;;;;5038007;28;20040;-77
2022/07/12 09:03:24;;;;;;;3.65;1.83;;;22.80;99.90;;;;;;5036862;28;20058;-78
2022/07/12 09:05:51;;;;;;;4.60;1.92;;;22.90;99.90;;;;;;5035139;28;20052;-77
2022/07/12 09:08:18;;;;;;;5.38;1.90;;;23.20;99.90;;;;;;5070717;28;20370;-77
2022/07/12 09:10:49;;;;;;;3.97;1.98;;;23.20;99.90;;;;;;5057089;28;20051;-77
2022/07/12 09:13:16;;;;;;;2.97;1.83;;;23.20;99.90;;;;;;5070032;28;20040;-75
2022/07/12 09:15:41;;;;;;;5.00;1.95;;;23.20;99.90;;;;;;5036422;28;20170;-75
2022/07/12 09:18:13;;;;;;;4.40;2.20;;;23.40;99.90;;;;;;5038794;28;20136;-77
2022/07/12 09:20:39;;;;;;;2.13;1.92;;;23.60;99.90;;;;;;5038154;28;20041;-77
2022/07/12 09:23:08;;;;;;;4.40;2.15;;;23.80;99.90;;;;;;5036731;28;20049;-76
2022/07/12 09:25:36;;;;;;;4.72;1.90;;;24.00;99.90;;;;;;5039166;28;20147;-77
2022/07/12 09:28:08;;;;;;;3.83;2.05;;;24.10;99.90;;;;;;5052730;28;20067;-76
2022/07/12 09:30:37;;;;;;;4.90;2.20;;;24.00;99.90;;;;;;5036905;28;20419;-77
2022/07/12 09:36:17;;;;;;;3.30;1.88;;;23.90;99.90;;;;;;5085778;28;20094;-75
2022/07/12 09:38:53;;;;;;;3.40;1.85;;;23.90;99.90;;;;;;5033886;28;20841;-76
2022/07/12 09:41:21;;;;;;;2.38;1.75;;;24.00;99.90;;;;;;5016447;28;20040;-76
2022/07/12 09:43:50;;;;;;;2.33;1.80;;;24.00;99.90;;;;;;5069072;28;20471;-74
2022/07/12 09:46:17;;;;;;;6.00;2.22;;;24.10;99.90;;;;;;5048103;28;20040;-76
2022/07/12 09:48:44;;;;;;;5.65;1.70;;;24.30;99.90;;;;;;5035247;28;20098;-76
2022/07/12 09:51:13;;;;;;;3.15;1.80;;;24.50;99.90;;;;;;5082832;28;20438;-78
2022/07/12 09:53:49;;;;;;;2.58;1.42;;;24.70;99.90;;;;;;5053181;28;20041;-75
2022/07/12 09:56:17;;;;;;;2.60;1.60;;;24.90;99.90;;;;;;5048115;28;20044;-77
2022/07/12 09:58:46;;;;;;;6.18;2.00;;;25.10;99.90;;;;;;5053417;28;20387;-76
2022/07/12 10:01:12;;;;;;;2.35;1.80;;;25.30;99.90;;;;;;5027660;28;20051;-78
2022/07/12 10:03:40;;;;;;;4.20;1.50;;;25.20;99.90;;;;;;5046313;28;20076;-76
2022/07/12 10:06:07;;;;;;;4.45;1.80;;;25.40;99.90;;;;;;5052967;28;20466;-74
2022/07/12 10:08:34;;;;;;;4.78;1.90;;;25.70;99.90;;;;;;5070154;28;20047;-75
2022/07/12 10:11:01;;;;;;;3.08;1.70;;;25.70;99.90;;;;;;5053732;28;20116;-75
2022/07/12 10:13:27;;;;;;;4.80;1.50;;;25.80;99.90;;;;;;5086586;28;20052;-75
2022/07/12 10:16:00;;;;;;;2.25;1.88;;;25.70;99.90;;;;;;5050308;28;20044;-75
2022/07/12 10:18:26;;;;;;;1.95;1.30;;;26.00;99.90;;;;;;5044703;28;20050;-76
2022/07/12 10:20:52;;;;;;;1.95;1.10;;;26.30;99.90;;;;;;5034984;28;20056;-76
2022/07/12 10:23:34;;;;;;;1.38;0.93;;;26.20;99.90;;;;;;5067587;28;20054;-76
2022/07/12 10:26:16;;;;;;;4.78;1.08;;;26.30;99.90;;;;;;5079557;28;20051;-77
2022/07/12 10:29:05;;;;;;;0.80;0.80;;;26.20;99.90;;;;;;5085108;28;20383;-78
2022/07/12 10:31:39;;;;;;;1.00;0.60;;;26.40;99.90;;;;;;5063740;28;20064;-77
2022/07/12 10:34:14;;;;;;;1.73;0.88;;;26.50;99.90;;;;;;5045223;28;20101;-77
2022/07/12 10:37:00;;;;;;;1.20;0.82;;;26.60;99.90;;;;;;5049377;28;20159;-77
2022/07/12 10:39:27;;;;;;;1.58;0.65;;;26.50;99.90;;;;;;5080479;28;20183;-75
2022/07/12 10:42:05;;;;;;;0.68;0.68;;;26.50;99.90;;;;;;5031578;28;20059;-78
2022/07/12 10:44:39;;;;;;;3.28;1.05;;;26.80;99.90;;;;;;5042006;28;20053;-77
2022/07/12 10:47:07;;;;;;;1.30;0.80;;;26.70;99.90;;;;;;5045622;28;20049;-76
2022/07/12 10:49:35;;;;;;;3.17;0.80;;;26.90;99.90;;;;;;5053123;28;20174;-75
2022/07/12 10:52:10;;;;;;;1.02;0.80;;;27.10;99.90;;;;;;5049263;28;20046;-75
2022/07/12 10:54:36;;;;;;;1.48;0.80;;;27.20;99.90;;;;;;5066491;28;20076;-76
2022/07/12 10:57:02;;;;;;;2.45;0.80;;;27.40;99.90;;;;;;5083083;28;20083;-75
2022/07/12 10:59:30;;;;;;;1.67;0.88;;;27.50;99.90;;;;;;5064409;28;20076;-76
2022/07/12 11:01:56;;;;;;;4.07;0.93;;;27.80;99.90;;;;;;5058344;28;20044;-75
2022/07/12 11:04:22;;;;;;;1.10;1.00;;;27.90;99.90;;;;;;5040750;28;20102;-78
2022/07/12 11:06:49;;;;;;;4.10;0.95;;;28.00;99.90;;;;;;5089035;28;20040;-76
2022/07/12 11:09:18;;;;;;;3.38;0.88;;;27.80;99.90;;;;;;5055957;28;20044;-76
2022/07/12 11:11:48;;;;;;;3.25;0.90;;;27.60;99.90;;;;;;5058474;28;20510;-75
2022/07/12 11:14:24;;;;;;;2.33;1.10;;;27.60;99.90;;;;;;5063026;28;20049;-77
2022/07/12 11:16:52;;;;;;;4.60;1.02;;;27.60;99.90;;;;;;5052671;28;20082;-76
2022/07/12 11:19:23;;;;;;;1.92;0.75;;;27.60;99.90;;;;;;5055854;28;20064;-78
2022/07/12 11:21:54;;;;;;;2.05;0.90;;;27.70;99.90;;;;;;5035694;28;20051;-78
2022/07/12 11:24:25;;;;;;;0.95;0.80;;;27.70;99.90;;;;;;5070384;28;20080;-77
2022/07/12 11:26:52;;;;;;;1.77;0.70;;;27.70;99.90;;;;;;5055743;28;20056;-77
2022/07/12 11:29:18;;;;;;;1.63;1.00;;;27.80;99.90;;;;;;5039454;28;20165;-79
2022/07/12 11:31:45;;;;;;;1.00;0.90;;;28.10;99.90;;;;;;5091008;28;20054;-75
2022/07/12 11:34:24;;;;;;;1.52;0.70;;;28.10;99.90;;;;;;5040381;28;20118;-76
2022/07/12 11:36:58;;;;;;;46.97;10.57;;;28.30;99.90;;;;;;5038078;28;20049;-78
2022/07/12 11:39:38;;;;;;;14.93;3.03;;;28.40;99.90;;;;;;5065034;28;22261;-79
2022/07/12 11:42:04;;;;;;;2.53;0.80;;;28.20;99.90;;;;;;5048028;28;20072;-78
2022/07/12 11:44:49;;;;;;;2.35;0.77;;;28.10;99.90;;;;;;5055313;28;20120;-79
2022/07/12 11:47:17;;;;;;;1.33;0.82;;;28.10;99.90;;;;;;5044015;28;20044;-78
2022/07/12 11:49:52;;;;;;;1.70;0.60;;;28.40;99.90;;;;;;5084331;28;20453;-79
2022/07/12 11:52:20;;;;;;;11.25;1.23;;;28.70;99.90;;;;;;5053776;28;20052;-77
2022/07/12 11:54:47;;;;;;;3.13;0.85;;;28.80;99.90;;;;;;5053684;28;20505;-78
2022/07/12 11:57:14;;;;;;;4.15;0.70;;;28.90;99.90;;;;;;5052542;28;20045;-78
2022/07/12 11:59:40;;;;;;;0.70;0.70;;;28.90;99.90;;;;;;5071342;28;20092;-79
2022/07/12 12:02:12;;;;;;;2.90;0.70;;;28.90;99.90;;;;;;5051953;28;20128;-79
2022/07/12 12:04:49;;;;;;;3.47;0.80;;;29.10;99.90;;;;;;5038189;28;20438;-79
2022/07/12 12:07:16;;;;;;;1.88;0.80;;;29.30;99.90;;;;;;5055037;28;20040;-80
2022/07/12 12:10:14;;;;;;;2.88;0.90;;;29.40;99.90;;;;;;5071077;28;20116;-79
2022/07/12 12:12:43;;;;;;;2.72;0.80;;;29.30;99.80;;;;;;5035936;28;20036;-76
2022/07/12 12:15:11;;;;;;;4.30;0.98;;;29.70;99.60;;;;;;5065738;28;20040;-79
2022/07/12 12:17:37;;;;;;;1.40;0.90;;;29.70;99.90;;;;;;5046245;28;20094;-78
2022/07/12 12:20:15;;;;;;;1.73;0.80;;;29.60;99.70;;;;;;5034443;28;20400;-77
2022/07/12 12:22:42;;;;;;;1.65;0.70;;;29.60;99.50;;;;;;5084610;28;20059;-78
2022/07/12 12:25:13;;;;;;;3.83;0.88;;;29.20;98.60;;;;;;5037030;28;20485;-79
2022/07/12 12:27:55;;;;;;;2.72;0.90;;;29.20;98.90;;;;;;5060532;28;20067;-79
2022/07/12 12:30:22;;;;;;;6.93;0.95;;;29.00;98.90;;;;;;5053271;28;20083;-77
2022/07/12 12:32:54;;;;;;;2.40;1.15;;;29.20;99.40;;;;;;5067769;28;20087;-77
2022/07/12 12:35:34;;;;;;;1.80;0.73;;;29.10;99.40;;;;;;5065766;28;20048;-78
2022/07/12 12:38:14;;;;;;;1.17;1.00;;;29.50;98.60;;;;;;5037056;28;20529;-77
2022/07/12 12:40:40;;;;;;;2.38;0.90;;;29.70;98.20;;;;;;5032058;28;20053;-79
2022/07/12 12:43:07;;;;;;;1.13;0.90;;;29.60;98.80;;;;;;5070324;28;20135;-76
2022/07/12 12:45:33;;;;;;;1.98;0.90;;;29.70;99.00;;;;;;5078507;28;20045;-79
2022/07/12 12:48:07;;;;;;;2.20;1.17;;;29.80;99.20;;;;;;5055542;28;20040;-76
2022/07/12 12:50:47;;;;;;;1.60;1.00;;;30.00;99.20;;;;;;5072557;28;20109;-77
2022/07/12 12:53:21;;;;;;;2.47;0.95;;;29.80;98.30;;;;;;5038147;28;20360;-78
2022/07/12 12:55:50;;;;;;;4.47;1.42;;;29.90;99.40;;;;;;5089064;28;20051;-78
2022/07/12 12:58:18;;;;;;;1.88;1.30;;;30.00;99.90;;;;;;5073716;28;20057;-78